Time;durP1;ratioP1;P1;durP2;ratioP2;P2;SDS_P1;SDS_P2;PMS_P1;PMS_P2;Temp;Humidity;BMP_temperature;BMP_pressure;BME280_temperature;BME280_humidity;BME280_pressure;Samples;Min_cycle;Max_cycle;Signal;HPM_P1;HPM_P2
2023/04/02 00:00:10;;;;;;;2.42;1.80;;;;;;;;;;6307947;22;20019;-59
2023/04/02 00:02:46;;;;;;;1.88;1.77;;;;;;;;;;6308163;22;20026;-60
2023/04/02 00:05:18;;;;;;;2.42;1.55;;;;;;;;;;6308019;22;20020;-60
2023/04/02 00:07:56;;;;;;;2.03;1.70;;;;;;;;;;6308086;22;20011;-59
2023/04/02 00:10:37;;;;;;;1.98;1.70;;;;;;;;;;6307943;22;20051;-58
2023/04/02 00:13:17;;;;;;;2.47;2.00;;;;;;;;;;6307967;22;20015;-59
2023/04/02 00:15:46;;;;;;;2.00;1.83;;;;;;;;;;6307998;22;20353;-58
2023/04/02 00:18:15;;;;;;;3.65;2.10;;;;;;;;;;6307894;22;20434;-59
2023/04/02 00:20:48;;;;;;;2.80;2.10;;;;;;;;;;6307796;22;20467;-58
2023/04/02 00:23:15;;;;;;;2.28;2.08;;;;;;;;;;6307398;22;20011;-59
2023/04/02 00:25:44;;;;;;;3.55;2.40;;;;;;;;;;6307830;22;20402;-60
2023/04/02 00:28:14;;;;;;;2.92;2.40;;;;;;;;;;6307673;22;20038;-59
2023/04/02 00:30:47;;;;;;;3.67;2.63;;;;;;;;;;6280292;22;21066;-59
2023/04/02 00:33:17;;;;;;;3.55;2.75;;;;;;;;;;6280324;22;20023;-59
2023/04/02 00:35:44;;;;;;;3.08;2.67;;;;;;;;;;6307502;22;20012;-59
2023/04/02 00:38:19;;;;;;;2.55;2.35;;;;;;;;;;6280297;22;20023;-59
2023/04/02 00:40:47;;;;;;;3.72;2.63;;;;;;;;;;6280440;22;20026;-59
2023/04/02 00:43:15;;;;;;;3.03;2.55;;;;;;;;;;6307521;22;20096;-59
2023/04/02 00:45:50;;;;;;;5.75;2.80;;;;;;;;;;6280378;22;20015;-59
2023/04/02 00:48:31;;;;;;;3.92;2.90;;;;;;;;;;6307510;22;20015;-59
2023/04/02 00:51:01;;;;;;;3.08;2.60;;;;;;;;;;6280111;22;20033;-59
2023/04/02 00:53:29;;;;;;;3.40;3.03;;;;;;;;;;6280049;22;20015;-59
2023/04/02 00:56:01;;;;;;;5.25;3.15;;;;;;;;;;6307066;22;20022;-59
2023/04/02 00:58:31;;;;;;;4.88;3.33;;;;;;;;;;6280287;22;20011;-59
2023/04/02 01:00:59;;;;;;;4.03;3.53;;;;;;;;;;6307337;22;20453;-59
2023/04/02 01:03:28;;;;;;;6.43;3.47;;;;;;;;;;6307417;22;20015;-59
2023/04/02 01:06:02;;;;;;;5.47;3.53;;;;;;;;;;6307127;22;20400;-60
2023/04/02 01:08:39;;;;;;;3.63;3.20;;;;;;;;;;6280116;22;20015;-60
2023/04/02 01:11:10;;;;;;;4.35;3.47;;;;;;;;;;6279926;22;20449;-59
2023/04/02 01:13:58;;;;;;;5.53;3.47;;;;;;;;;;6307165;22;20065;-59
2023/04/02 01:16:35;;;;;;;4.82;4.00;;;;;;;;;;6279955;22;20045;-60
2023/04/02 01:19:17;;;;;;;5.13;4.28;;;;;;;;;;6279893;22;20501;-60
2023/04/02 01:21:44;;;;;;;4.80;4.25;;;;;;;;;;6280230;22;20011;-60
2023/04/02 01:24:13;;;;;;;4.30;3.83;;;;;;;;;;6279768;22;20019;-60
2023/04/02 01:26:50;;;;;;;6.53;4.50;;;;;;;;;;6307011;22;20464;-59
2023/04/02 01:29:19;;;;;;;4.95;4.00;;;;;;;;;;6306956;22;20073;-59
2023/04/02 01:31:48;;;;;;;4.90;3.92;;;;;;;;;;6279727;22;20019;-60
2023/04/02 01:34:17;;;;;;;6.10;4.38;;;;;;;;;;6279646;22;20414;-60
2023/04/02 01:36:51;;;;;;;5.40;4.60;;;;;;;;;;6279721;22;20397;-59
2023/04/02 01:39:19;;;;;;;5.38;4.30;;;;;;;;;;6307408;22;20091;-59
2023/04/02 01:41:56;;;;;;;5.40;4.50;;;;;;;;;;6279518;22;20023;-59
2023/04/02 01:44:53;;;;;;;5.38;4.30;;;;;;;;;;6279519;22;20345;-59
2023/04/02 01:47:26;;;;;;;5.32;4.70;;;;;;;;;;6287940;22;20038;-59
2023/04/02 01:49:58;;;;;;;6.95;4.88;;;;;;;;;;6279802;22;20049;-59
2023/04/02 01:52:33;;;;;;;5.35;4.72;;;;;;;;;;6279668;22;20068;-60
2023/04/02 01:55:02;;;;;;;6.35;5.25;;;;;;;;;;6279554;22;20098;-59
2023/04/02 01:57:30;;;;;;;5.35;4.82;;;;;;;;;;6306712;22;20026;-59
2023/04/02 02:00:00;;;;;;;6.82;5.47;;;;;;;;;;6279479;22;20076;-59
2023/04/02 02:02:28;;;;;;;6.32;5.35;;;;;;;;;;6279593;22;20102;-60
2023/04/02 02:04:55;;;;;;;7.07;5.80;;;;;;;;;;6279215;22;20042;-59
2023/04/02 02:07:24;;;;;;;7.53;5.75;;;;;;;;;;6306766;22;20026;-60
2023/04/02 02:09:54;;;;;;;7.15;5.63;;;;;;;;;;6279393;22;20019;-60
2023/04/02 02:12:22;;;;;;;6.70;5.53;;;;;;;;;;6307261;22;20015;-60
2023/04/02 02:14:51;;;;;;;6.25;5.55;;;;;;;;;;6307265;22;20019;-59
2023/04/02 02:17:33;;;;;;;6.93;5.82;;;;;;;;;;6279639;22;20068;-59
2023/04/02 02:20:05;;;;;;;7.10;6.40;;;;;;;;;;6279639;22;20026;-60
2023/04/02 02:22:38;;;;;;;8.93;6.50;;;;;;;;;;6279878;22;20022;-58
2023/04/02 02:25:10;;;;;;;7.03;6.18;;;;;;;;;;6279499;22;20023;-59
2023/04/02 02:28:16;;;;;;;7.65;6.45;;;;;;;;;;6279875;22;20038;-58
2023/04/02 02:30:47;;;;;;;9.07;6.68;;;;;;;;;;6187127;23;20482;-59
2023/04/02 02:33:15;;;;;;;8.10;6.45;;;;;;;;;;6212087;23;20366;-58
2023/04/02 02:35:42;;;;;;;7.93;6.78;;;;;;;;;;6249491;22;20307;-59
2023/04/02 02:38:30;;;;;;;7.75;6.35;;;;;;;;;;6279646;22;20023;-58
2023/04/02 02:41:23;;;;;;;8.00;6.20;;;;;;;;;;6279491;22;20023;-59
2023/04/02 02:43:57;;;;;;;8.20;6.00;;;;;;;;;;6265609;22;20073;-59
2023/04/02 02:46:26;;;;;;;7.88;6.47;;;;;;;;;;6280130;22;20023;-59
2023/04/02 02:48:55;;;;;;;9.13;6.30;;;;;;;;;;6280975;22;20028;-59
2023/04/02 02:51:40;;;;;;;7.28;6.30;;;;;;;;;;6281399;22;20030;-59
2023/04/02 02:54:10;;;;;;;6.72;6.00;;;;;;;;;;6280917;22;20019;-59
2023/04/02 02:56:40;;;;;;;8.18;6.03;;;;;;;;;;6280931;22;20033;-59
2023/04/02 02:59:10;;;;;;;7.57;6.65;;;;;;;;;;6308387;22;20384;-59
2023/04/02 03:01:41;;;;;;;7.90;6.32;;;;;;;;;;6281253;22;20084;-58
2023/04/02 03:04:09;;;;;;;9.70;6.40;;;;;;;;;;6280988;22;20047;-59
2023/04/02 03:06:38;;;;;;;8.10;6.18;;;;;;;;;;6281078;22;20110;-59
2023/04/02 03:09:17;;;;;;;7.22;6.10;;;;;;;;;;6280997;22;20015;-59
2023/04/02 03:12:04;;;;;;;9.10;6.22;;;;;;;;;;6281007;22;20023;-59
2023/04/02 03:14:34;;;;;;;7.75;5.90;;;;;;;;;;6281114;22;20046;-59
2023/04/02 03:17:10;;;;;;;12.13;6.47;;;;;;;;;;6281088;22;20088;-59
2023/04/02 03:19:38;;;;;;;;;;;;;;;;;;6281795;22;20023;-59
2023/04/02 03:22:11;;;;;;;8.90;5.50;;;;;;;;;;6306624;22;19937;-60
2023/04/02 03:24:49;;;;;;;7.28;5.60;;;;;;;;;;6280917;22;20101;-59
2023/04/02 03:27:17;;;;;;;9.40;5.80;;;;;;;;;;6280816;22;20019;-59
2023/04/02 03:30:05;;;;;;;9.52;5.65;;;;;;;;;;6308207;22;20437;-59
2023/04/02 03:32:37;;;;;;;10.10;6.00;;;;;;;;;;6280757;22;20015;-59
2023/04/02 03:35:24;;;;;;;9.32;6.43;;;;;;;;;;6281285;22;20065;-59
2023/04/02 03:37:55;;;;;;;6.93;5.35;;;;;;;;;;6280913;22;20094;-59
2023/04/02 03:40:33;;;;;;;8.63;6.38;;;;;;;;;;6308319;22;20019;-59
2023/04/02 03:43:00;;;;;;;7.65;6.03;;;;;;;;;;6280728;22;20408;-59
2023/04/02 03:45:33;;;;;;;8.43;5.72;;;;;;;;;;6280828;22;20482;-59
2023/04/02 03:48:25;;;;;;;7.82;5.75;;;;;;;;;;6280818;22;20602;-59
2023/04/02 03:51:11;;;;;;;7.70;5.97;;;;;;;;;;6307977;22;20032;-59
2023/04/02 03:53:39;;;;;;;7.68;5.80;;;;;;;;;;6308077;22;20345;-59
2023/04/02 03:56:06;;;;;;;10.10;5.80;;;;;;;;;;6280803;22;20080;-59
2023/04/02 03:58:34;;;;;;;9.10;5.65;;;;;;;;;;6280667;22;20046;-59
2023/04/02 04:01:06;;;;;;;7.97;5.57;;;;;;;;;;6280731;22;20029;-59
2023/04/02 04:03:45;;;;;;;8.15;5.30;;;;;;;;;;6280383;22;20015;-59
2023/04/02 04:06:23;;;;;;;8.63;5.40;;;;;;;;;;6280752;22;20022;-60
2023/04/02 04:08:54;;;;;;;6.95;5.07;;;;;;;;;;6280376;22;20019;-59
2023/04/02 04:11:26;;;;;;;8.00;5.28;;;;;;;;;;6280753;22;20099;-59
2023/04/02 04:14:00;;;;;;;8.10;5.10;;;;;;;;;;6280445;22;20015;-59
2023/04/02 04:16:34;;;;;;;8.38;4.72;;;;;;;;;;6280853;22;20064;-59
2023/04/02 04:19:11;;;;;;;6.57;4.60;;;;;;;;;;6307613;22;20073;-59
2023/04/02 04:21:38;;;;;;;10.38;5.55;;;;;;;;;;6280280;22;20039;-59
2023/04/02 04:24:20;;;;;;;6.90;4.95;;;;;;;;;;6307548;22;20011;-59
2023/04/02 04:26:54;;;;;;;6.30;4.70;;;;;;;;;;6280397;22;20027;-60
2023/04/02 04:29:44;;;;;;;7.68;4.75;;;;;;;;;;6280292;22;20039;-59
2023/04/02 04:32:31;;;;;;;7.13;4.45;;;;;;;;;;6255142;22;20024;-59
2023/04/02 04:35:07;;;;;;;6.20;4.80;;;;;;;;;;6280214;22;20026;-59
2023/04/02 04:37:37;;;;;;;7.15;4.78;;;;;;;;;;6280461;22;20011;-59
2023/04/02 04:40:34;;;;;;;7.55;4.63;;;;;;;;;;6280692;22;20026;-59
2023/04/02 04:43:04;;;;;;;4.97;3.95;;;;;;;;;;6277629;22;20026;-59
2023/04/02 04:45:38;;;;;;;5.07;3.63;;;;;;;;;;6280555;22;20467;-58
2023/04/02 04:48:25;;;;;;;10.35;4.28;;;;;;;;;;6280252;22;20090;-60
2023/04/02 04:51:18;;;;;;;7.63;4.55;;;;;;;;;;6280204;22;20027;-59
2023/04/02 04:53:47;;;;;;;6.68;4.28;;;;;;;;;;6272810;22;20015;-59
2023/04/02 04:56:21;;;;;;;5.97;3.45;;;;;;;;;;6307485;22;20034;-59
2023/04/02 04:59:06;;;;;;;5.35;3.72;;;;;;;;;;6279981;22;20039;-59
2023/04/02 05:01:46;;;;;;;6.00;3.67;;;;;;;;;;6280090;22;20021;-59
2023/04/02 05:04:23;;;;;;;6.90;3.88;;;;;;;;;;6280006;22;20023;-60
2023/04/02 05:06:59;;;;;;;6.43;3.72;;;;;;;;;;6280392;22;20019;-60
2023/04/02 05:09:27;;;;;;;;;;;;;;;;;;6280304;22;20023;-59
2023/04/02 05:12:01;;;;;;;5.72;3.50;;;;;;;;;;6279975;22;19919;-60
2023/04/02 05:14:35;;;;;;;5.13;3.30;;;;;;;;;;6280111;22;20449;-60
2023/04/02 05:17:22;;;;;;;4.75;3.20;;;;;;;;;;6280357;22;20027;-59
2023/04/02 05:19:55;;;;;;;4.20;3.05;;;;;;;;;;6279965;22;20511;-59
2023/04/02 05:22:27;;;;;;;5.10;3.03;;;;;;;;;;6279650;22;20538;-60
2023/04/02 05:25:01;;;;;;;5.30;3.40;;;;;;;;;;6279830;22;20058;-59
2023/04/02 05:27:36;;;;;;;4.70;3.03;;;;;;;;;;6279852;22;20099;-59
2023/04/02 05:30:06;;;;;;;5.88;3.10;;;;;;;;;;6279582;22;20327;-59
2023/04/02 05:32:37;;;;;;;5.60;3.30;;;;;;;;;;6279394;22;20023;-58
2023/04/02 05:35:05;;;;;;;4.60;3.10;;;;;;;;;;6279517;22;20045;-59
2023/04/02 05:37:38;;;;;;;6.72;3.25;;;;;;;;;;6279588;22;20035;-59
2023/04/02 05:40:13;;;;;;;4.72;3.00;;;;;;;;;;6279628;22;20015;-59
2023/04/02 05:42:44;;;;;;;6.13;3.10;;;;;;;;;;6279243;22;20102;-59
2023/04/02 05:45:30;;;;;;;7.30;3.42;;;;;;;;;;6279527;22;20011;-60
2023/04/02 05:48:02;;;;;;;4.88;3.00;;;;;;;;;;6306980;22;20090;-58
2023/04/02 05:50:38;;;;;;;5.47;3.25;;;;;;;;;;6279413;22;20053;-59
2023/04/02 05:53:14;;;;;;;7.15;3.35;;;;;;;;;;6279384;22;20323;-60
2023/04/02 05:56:02;;;;;;;5.38;3.38;;;;;;;;;;6279555;22;20345;-59
2023/04/02 05:58:51;;;;;;;4.72;3.28;;;;;;;;;;6266366;22;20038;-59
2023/04/02 06:01:36;;;;;;;5.18;3.17;;;;;;;;;;6279116;22;20023;-59
2023/04/02 06:04:12;;;;;;;6.43;3.83;;;;;;;;;;6279730;22;20354;-60
2023/04/02 06:06:41;;;;;;;7.90;4.53;;;;;;;;;;6279103;22;20025;-60
2023/04/02 06:09:43;;;;;;;6.03;4.07;;;;;;;;;;6279303;22;20064;-60
2023/04/02 06:12:10;;;;;;;5.68;3.33;;;;;;;;;;6246420;22;20039;-59
2023/04/02 06:14:39;;;;;;;5.82;3.25;;;;;;;;;;6279586;22;20025;-60
2023/04/02 06:17:11;;;;;;;5.90;3.50;;;;;;;;;;6279255;22;20341;-60
2023/04/02 06:19:39;;;;;;;6.25;3.25;;;;;;;;;;6279256;22;20031;-60
2023/04/02 06:22:22;;;;;;;5.45;3.30;;;;;;;;;;6280469;22;20026;-60
2023/04/02 06:25:03;;;;;;;5.28;3.20;;;;;;;;;;6281431;22;20015;-60
2023/04/02 06:27:37;;;;;;;5.90;3.15;;;;;;;;;;6281177;22;20023;-61
2023/04/02 06:30:13;;;;;;;4.40;3.15;;;;;;;;;;6281164;22;20019;-61
2023/04/02 06:32:42;;;;;;;5.93;3.30;;;;;;;;;;6281109;22;20449;-60
2023/04/02 06:35:13;;;;;;;6.15;3.58;;;;;;;;;;6281180;22;20442;-60
2023/04/02 06:37:44;;;;;;;8.18;3.40;;;;;;;;;;6281346;22;20072;-60
2023/04/02 06:40:25;;;;;;;4.68;3.20;;;;;;;;;;6281470;22;20023;-60
2023/04/02 06:42:58;;;;;;;5.95;3.20;;;;;;;;;;6281268;22;20029;-60
2023/04/02 06:45:46;;;;;;;8.32;3.20;;;;;;;;;;6308662;22;20025;-60
2023/04/02 06:48:21;;;;;;;4.93;3.33;;;;;;;;;;6308337;22;20023;-60
2023/04/02 06:51:01;;;;;;;8.20;3.38;;;;;;;;;;6281275;22;20026;-61
2023/04/02 06:53:29;;;;;;;;;;;;;;;;;;6282148;22;20019;-61
2023/04/02 06:56:02;;;;;;;7.25;3.05;;;;;;;;;;6281275;22;19919;-61
2023/04/02 06:58:31;;;;;;;5.78;3.22;;;;;;;;;;6281062;22;20023;-60
2023/04/02 07:00:59;;;;;;;6.10;3.08;;;;;;;;;;6281238;22;20026;-60
2023/04/02 07:03:33;;;;;;;5.57;3.35;;;;;;;;;;6280869;22;20020;-61
2023/04/02 07:06:13;;;;;;;4.82;3.42;;;;;;;;;;6280870;22;20019;-61
2023/04/02 07:08:40;;;;;;;5.20;2.85;;;;;;;;;;6308218;22;20426;-61
2023/04/02 07:11:12;;;;;;;4.68;3.03;;;;;;;;;;6281045;22;20453;-63
2023/04/02 07:13:40;;;;;;;5.97;2.78;;;;;;;;;;6280760;22;20019;-63
2023/04/02 07:16:11;;;;;;;4.88;3.47;;;;;;;;;;6281142;22;20023;-63
2023/04/02 07:18:39;;;;;;;4.05;2.90;;;;;;;;;;6308296;22;20038;-63
2023/04/02 07:21:07;;;;;;;4.15;3.13;;;;;;;;;;6280993;22;20022;-64
2023/04/02 07:23:35;;;;;;;6.05;3.25;;;;;;;;;;6280296;22;20019;-63
2023/04/02 07:26:02;;;;;;;5.13;2.80;;;;;;;;;;6280780;22;20453;-64
2023/04/02 07:28:30;;;;;;;6.40;3.05;;;;;;;;;;6307850;22;20038;-61
2023/04/02 07:30:58;;;;;;;5.28;2.70;;;;;;;;;;6307957;22;20011;-60
2023/04/02 07:33:27;;;;;;;5.30;3.20;;;;;;;;;;6308066;22;20034;-61
2023/04/02 07:35:56;;;;;;;4.88;2.83;;;;;;;;;;6308396;22;20456;-59
2023/04/02 07:38:23;;;;;;;5.28;2.88;;;;;;;;;;6308139;22;20023;-59
2023/04/02 07:40:51;;;;;;;5.20;3.05;;;;;;;;;;6308086;22;20015;-58
2023/04/02 07:43:18;;;;;;;5.82;3.20;;;;;;;;;;6307396;22;20080;-59
2023/04/02 07:45:46;;;;;;;5.32;3.30;;;;;;;;;;6307983;22;20015;-59
2023/04/02 07:48:14;;;;;;;5.47;3.17;;;;;;;;;;6307613;22;20023;-59
2023/04/02 07:50:41;;;;;;;5.10;2.83;;;;;;;;;;6280835;22;20034;-59
2023/04/02 07:53:15;;;;;;;5.03;3.10;;;;;;;;;;6307851;22;20073;-60
2023/04/02 07:55:43;;;;;;;5.22;3.55;;;;;;;;;;6281224;22;20019;-60
2023/04/02 07:58:10;;;;;;;4.82;3.15;;;;;;;;;;6307473;22;20015;-60
2023/04/02 08:00:37;;;;;;;7.50;3.20;;;;;;;;;;6307646;22;20015;-60
2023/04/02 08:03:05;;;;;;;8.38;3.35;;;;;;;;;;6307834;22;20019;-60
2023/04/02 08:05:33;;;;;;;5.65;3.40;;;;;;;;;;6307675;22;20114;-60
2023/04/02 08:08:01;;;;;;;14.07;8.43;;;;;;;;;;6307125;22;20102;-60
2023/04/02 08:10:28;;;;;;;8.55;3.50;;;;;;;;;;6307682;22;20464;-60
2023/04/02 08:12:56;;;;;;;4.00;2.97;;;;;;;;;;6307787;22;20076;-61
2023/04/02 08:15:23;;;;;;;6.13;3.30;;;;;;;;;;6308066;22;20011;-61
2023/04/02 08:17:52;;;;;;;6.78;3.53;;;;;;;;;;6306520;22;20806;-61
2023/04/02 08:20:21;;;;;;;6.07;3.50;;;;;;;;;;6307512;22;20007;-60
2023/04/02 08:22:49;;;;;;;3.97;3.17;;;;;;;;;;6307544;22;20019;-61
2023/04/02 08:25:17;;;;;;;5.82;3.10;;;;;;;;;;6307540;22;20068;-60
2023/04/02 08:27:46;;;;;;;5.40;3.42;;;;;;;;;;6307334;22;20026;-59
2023/04/02 08:30:15;;;;;;;4.38;3.30;;;;;;;;;;6307487;22;20169;-59
2023/04/02 08:32:43;;;;;;;4.53;3.03;;;;;;;;;;6307207;22;20011;-60
2023/04/02 08:35:11;;;;;;;4.10;3.00;;;;;;;;;;6307372;22;20391;-60
2023/04/02 08:37:39;;;;;;;5.32;3.08;;;;;;;;;;6307224;22;20072;-59
2023/04/02 08:40:07;;;;;;;4.35;2.83;;;;;;;;;;6307149;22;20019;-60
2023/04/02 08:42:39;;;;;;;5.85;3.20;;;;;;;;;;6306788;22;20086;-60
2023/04/02 08:45:16;;;;;;;3.90;2.88;;;;;;;;;;6306339;22;20077;-60
2023/04/02 08:47:54;;;;;;;6.25;3.20;;;;;;;;;;6279524;22;20069;-60
2023/04/02 08:50:31;;;;;;;5.35;3.38;;;;;;;;;;6306901;22;20065;-60
2023/04/02 08:53:00;;;;;;;7.55;4.50;;;;;;;;;;6306972;22;20041;-59
2023/04/02 08:55:36;;;;;;;4.72;3.20;;;;;;;;;;6306493;22;20042;-60
2023/04/02 08:58:10;;;;;;;7.38;3.83;;;;;;;;;;6307055;22;20447;-59
2023/04/02 09:00:42;;;;;;;8.55;3.85;;;;;;;;;;6306773;22;20015;-60
2023/04/02 09:03:13;;;;;;;5.97;3.42;;;;;;;;;;6307168;22;20094;-59
2023/04/02 09:05:42;;;;;;;5.00;3.70;;;;;;;;;;6306987;22;20460;-61
2023/04/02 09:08:30;;;;;;;8.55;3.85;;;;;;;;;;6307210;22;20011;-60
2023/04/02 09:11:06;;;;;;;5.97;3.50;;;;;;;;;;6306891;22;20022;-61
2023/04/02 09:13:37;;;;;;;7.68;5.35;;;;;;;;;;6306973;22;20015;-62
2023/04/02 09:16:07;;;;;;;6.80;4.00;;;;;;;;;;6306837;22;20487;-62
2023/04/02 09:18:36;;;;;;;6.30;3.28;;;;;;;;;;6306198;22;20525;-61
2023/04/02 09:21:22;;;;;;;5.55;3.22;;;;;;;;;;6278335;22;20019;-60
2023/04/02 09:23:49;;;;;;;5.90;3.58;;;;;;;;;;6306872;22;20011;-62
2023/04/02 09:26:22;;;;;;;6.47;3.17;;;;;;;;;;6306530;22;20100;-60
2023/04/02 09:29:09;;;;;;;8.68;5.50;;;;;;;;;;6306923;22;20322;-60
2023/04/02 09:31:45;;;;;;;13.35;10.18;;;;;;;;;;6306175;22;20038;-60
2023/04/02 09:34:28;;;;;;;5.75;3.05;;;;;;;;;;6306781;22;20015;-59
2023/04/02 09:36:56;;;;;;;5.25;3.05;;;;;;;;;;6279489;22;20461;-60
2023/04/02 09:39:25;;;;;;;6.13;3.00;;;;;;;;;;6306543;22;20019;-59
2023/04/02 09:41:53;;;;;;;4.18;2.83;;;;;;;;;;6306469;22;20015;-60
2023/04/02 09:44:32;;;;;;;5.18;3.00;;;;;;;;;;6306546;22;20042;-60
2023/04/02 09:47:04;;;;;;;5.53;3.58;;;;;;;;;;6306936;22;20068;-60
2023/04/02 09:49:39;;;;;;;4.00;2.67;;;;;;;;;;6306667;22;20038;-60
2023/04/02 09:52:12;;;;;;;10.20;6.18;;;;;;;;;;6305918;22;20460;-61
2023/04/02 09:54:43;;;;;;;13.02;8.90;;;;;;;;;;6306412;22;20022;-60
2023/04/02 09:57:26;;;;;;;112.97;67.05;;;;;;;;;;6306362;22;20451;-60
2023/04/02 10:00:08;;;;;;;7.70;5.07;;;;;;;;;;6306225;22;20065;-60
2023/04/02 10:02:45;;;;;;;15.57;11.32;;;;;;;;;;6306269;22;20023;-59
2023/04/02 10:05:21;;;;;;;6.50;4.18;;;;;;;;;;6306397;22;20019;-59
2023/04/02 10:08:09;;;;;;;11.48;7.55;;;;;;;;;;6306899;22;20031;-59
2023/04/02 10:10:44;;;;;;;25.38;7.15;;;;;;;;;;6306567;22;20066;-60
2023/04/02 10:13:14;;;;;;;14.52;5.50;;;;;;;;;;6306512;22;20102;-61
2023/04/02 10:16:20;;;;;;;41.58;26.27;;;;;;;;;;6306334;22;20019;-60
2023/04/02 10:18:59;;;;;;;20.13;6.25;;;;;;;;;;6181696;23;20048;-60
2023/04/02 10:21:36;;;;;;;7.57;2.90;;;;;;;;;;6182011;23;20017;-59
2023/04/02 10:24:10;;;;;;;11.77;5.32;;;;;;;;;;6260488;22;20093;-60
2023/04/02 10:26:57;;;;;;;74.00;22.70;;;;;;;;;;6306664;22;20018;-60
2023/04/02 10:29:31;;;;;;;6.90;4.55;;;;;;;;;;6306420;22;20453;-59
2023/04/02 10:32:16;;;;;;;4.75;2.65;;;;;;;;;;6306638;22;20015;-63
2023/04/02 10:34:57;;;;;;;5.20;2.28;;;;;;;;;;6306369;22;20035;-60
2023/04/02 10:37:43;;;;;;;12.93;8.13;;;;;;;;;;6306250;22;20018;-59
2023/04/02 10:40:14;;;;;;;6.85;4.40;;;;;;;;;;6306578;22;20019;-60
2023/04/02 10:42:51;;;;;;;3.05;2.28;;;;;;;;;;6306570;22;20330;-60
2023/04/02 10:45:25;;;;;;;5.68;3.08;;;;;;;;;;6306401;22;20020;-60
2023/04/02 10:48:10;;;;;;;4.03;2.30;;;;;;;;;;6306320;22;20113;-59
2023/04/02 10:50:38;;;;;;;3.83;2.10;;;;;;;;;;6306339;22;20461;-59
2023/04/02 10:53:05;;;;;;;3.38;2.30;;;;;;;;;;6306133;22;20334;-60
2023/04/02 10:55:38;;;;;;;3.05;1.65;;;;;;;;;;6278602;22;20015;-60
2023/04/02 10:58:08;;;;;;;4.63;2.22;;;;;;;;;;6306499;22;20030;-59
2023/04/02 11:00:39;;;;;;;2.88;1.95;;;;;;;;;;6305725;22;20090;-60
2023/04/02 11:03:12;;;;;;;3.08;1.63;;;;;;;;;;6306492;22;20011;-60
2023/04/02 11:05:45;;;;;;;3.43;1.60;;;;;;;;;;6306416;22;20322;-60
2023/04/02 11:08:28;;;;;;;12.20;2.22;;;;;;;;;;6307212;22;20035;-61
2023/04/02 11:11:00;;;;;;;4.15;1.33;;;;;;;;;;6308082;22;20073;-60
2023/04/02 11:13:35;;;;;;;4.43;1.90;;;;;;;;;;6307974;22;20337;-60
2023/04/02 11:16:02;;;;;;;2.33;1.50;;;;;;;;;;6308163;22;20012;-60
2023/04/02 11:18:37;;;;;;;5.75;2.05;;;;;;;;;;6307899;22;20019;-61
2023/04/02 11:21:04;;;;;;;;;;;;;;;;;;6281090;22;20670;-60
2023/04/02 11:23:33;;;;;;;2.30;1.60;;;;;;;;;;6307867;22;19915;-60
2023/04/02 11:26:20;;;;;;;2.45;1.75;;;;;;;;;;6307937;22;20019;-60
2023/04/02 11:28:47;;;;;;;7.90;4.88;;;;;;;;;;6308125;22;20381;-60
2023/04/02 11:31:21;;;;;;;2.75;1.40;;;;;;;;;;6308068;22;20333;-60
2023/04/02 11:33:49;;;;;;;6.78;4.88;;;;;;;;;;6307857;22;20026;-59
2023/04/02 11:36:39;;;;;;;3.33;1.65;;;;;;;;;;6307765;22;20027;-60
2023/04/02 11:39:09;;;;;;;15.20;11.32;;;;;;;;;;6296237;22;20105;-60
2023/04/02 11:42:21;;;;;;;30.63;21.90;;;;;;;;;;6306739;22;20015;-61
2023/04/02 11:44:48;;;;;;;5.53;2.20;;;;;;;;;;6305997;22;20501;-59
2023/04/02 11:47:19;;;;;;;2.50;1.70;;;;;;;;;;6306857;22;20019;-61
2023/04/02 11:50:07;;;;;;;2.35;2.05;;;;;;;;;;6306360;22;20065;-66
2023/04/02 11:52:34;;;;;;;4.43;2.70;;;;;;;;;;6279518;22;20341;-65
2023/04/02 11:55:05;;;;;;;62.70;37.45;;;;;;;;;;6305912;22;20051;-67
2023/04/02 11:57:33;;;;;;;3.17;1.90;;;;;;;;;;6306657;22;20380;-67
2023/04/02 12:00:33;;;;;;;8.63;5.05;;;;;;;;;;6306706;22;20015;-67
2023/04/02 12:03:10;;;;;;;10.02;6.43;;;;;;;;;;6230279;22;20026;-67
2023/04/02 12:06:01;;;;;;;7.53;3.92;;;;;;;;;;6279339;22;20025;-67
2023/04/02 12:08:39;;;;;;;3.72;1.92;;;;;;;;;;6307533;22;20015;-67
2023/04/02 12:11:33;;;;;;;1.70;1.40;;;;;;;;;;6307713;22;20015;-67
2023/04/02 12:14:01;;;;;;;2.60;1.58;;;;;;;;;;6307379;22;20518;-67
2023/04/02 12:16:32;;;;;;;3.05;1.60;;;;;;;;;;6307533;22;20075;-67
2023/04/02 12:19:00;;;;;;;4.03;1.30;;;;;;;;;;6306813;22;20065;-68
2023/04/02 12:21:29;;;;;;;2.22;1.30;;;;;;;;;;6280136;22;20011;-68
2023/04/02 12:23:58;;;;;;;3.28;1.55;;;;;;;;;;6307833;22;20051;-68
2023/04/02 12:26:30;;;;;;;2.08;1.45;;;;;;;;;;6307307;22;20015;-67
2023/04/02 12:29:14;;;;;;;2.70;1.38;;;;;;;;;;6307276;22;20022;-66
2023/04/02 12:31:48;;;;;;;3.25;1.80;;;;;;;;;;6307357;22;20337;-67
2023/04/02 12:34:16;;;;;;;1.40;1.30;;;;;;;;;;6307420;22;20493;-67
2023/04/02 12:37:13;;;;;;;1.70;1.58;;;;;;;;;;6307166;22;20043;-67
2023/04/02 12:39:51;;;;;;;1.67;1.20;;;;;;;;;;6287627;22;20042;-67
2023/04/02 12:42:26;;;;;;;2.47;1.42;;;;;;;;;;6307356;22;20097;-67
2023/04/02 12:44:53;;;;;;;3.63;1.70;;;;;;;;;;6307771;22;20046;-67
2023/04/02 12:47:21;;;;;;;1.00;1.00;;;;;;;;;;6307683;22;20379;-67
2023/04/02 12:49:50;;;;;;;2.65;1.15;;;;;;;;;;6307129;22;20034;-67
2023/04/02 12:52:18;;;;;;;1.88;0.90;;;;;;;;;;6307196;22;20077;-67
2023/04/02 12:54:52;;;;;;;1.95;1.13;;;;;;;;;;6306995;22;20012;-67
2023/04/02 12:57:30;;;;;;;3.13;1.35;;;;;;;;;;6307032;22;20464;-67
2023/04/02 12:59:59;;;;;;;3.80;1.77;;;;;;;;;;6307209;22;20015;-67
2023/04/02 13:02:28;;;;;;;2.65;1.30;;;;;;;;;;6306825;22;20060;-67
2023/04/02 13:04:59;;;;;;;1.63;1.40;;;;;;;;;;6307079;22;20606;-66
2023/04/02 13:07:29;;;;;;;1.17;1.10;;;;;;;;;;6280938;22;20015;-67
2023/04/02 13:10:00;;;;;;;2.67;1.10;;;;;;;;;;6280340;22;20310;-67
2023/04/02 13:12:40;;;;;;;3.28;1.70;;;;;;;;;;6307058;22;20015;-68
2023/04/02 13:15:17;;;;;;;1.63;1.25;;;;;;;;;;6307028;22;20463;-67
2023/04/02 13:17:47;;;;;;;2.35;1.35;;;;;;;;;;6307081;22;20015;-67
2023/04/02 13:20:41;;;;;;;1.42;1.15;;;;;;;;;;6306967;22;20015;-67
2023/04/02 13:23:27;;;;;;;2.75;1.20;;;;;;;;;;6303272;22;20023;-67
2023/04/02 13:26:12;;;;;;;2.40;1.23;;;;;;;;;;6306852;22;20124;-68
2023/04/02 13:28:40;;;;;;;1.52;1.08;;;;;;;;;;6306935;22;20079;-67
2023/04/02 13:31:14;;;;;;;2.63;1.40;;;;;;;;;;6307248;22;20076;-68
2023/04/02 13:33:42;;;;;;;2.15;1.10;;;;;;;;;;6306627;22;20081;-67
2023/04/02 13:36:16;;;;;;;4.22;1.10;;;;;;;;;;6307015;22;20074;-68
2023/04/02 13:38:43;;;;;;;1.40;0.90;;;;;;;;;;6279388;22;20026;-67
2023/04/02 13:41:22;;;;;;;2.58;1.38;;;;;;;;;;6306865;22;20288;-67
2023/04/02 13:43:50;;;;;;;1.75;1.40;;;;;;;;;;6306581;22;20015;-68
2023/04/02 13:46:25;;;;;;;1.98;1.02;;;;;;;;;;6305660;22;20144;-68
2023/04/02 13:48:54;;;;;;;2.70;0.93;;;;;;;;;;6305943;22;20045;-66
2023/04/02 13:51:23;;;;;;;2.10;1.33;;;;;;;;;;6306535;22;20504;-68
2023/04/02 13:53:53;;;;;;;1.10;1.10;;;;;;;;;;6306378;22;20019;-68
2023/04/02 13:56:22;;;;;;;2.83;1.45;;;;;;;;;;6305465;22;20019;-68
2023/04/02 13:58:50;;;;;;;3.20;1.38;;;;;;;;;;6304665;22;20349;-67
2023/04/02 14:01:19;;;;;;;2.25;1.45;;;;;;;;;;6306276;22;20011;-68
2023/04/02 14:03:46;;;;;;;3.97;1.38;;;;;;;;;;6306334;22;20018;-67
2023/04/02 14:06:19;;;;;;;1.45;1.15;;;;;;;;;;6278212;22;20380;-67
2023/04/02 14:09:10;;;;;;;1.75;1.20;;;;;;;;;;6303725;22;20459;-67
2023/04/02 14:11:48;;;;;;;1.40;1.20;;;;;;;;;;6277682;22;20015;-67
2023/04/02 14:14:34;;;;;;;1.35;1.10;;;;;;;;;;6304770;22;20061;-66
2023/04/02 14:17:07;;;;;;;3.97;0.93;;;;;;;;;;6281249;22;20452;-69
2023/04/02 14:19:37;;;;;;;1.65;1.10;;;;;;;;;;6274718;22;20066;-69
2023/04/02 14:22:21;;;;;;;1.33;1.23;;;;;;;;;;6274911;22;20381;-69
2023/04/02 14:24:52;;;;;;;7.43;2.90;;;;;;;;;;6273872;22;20547;-68
2023/04/02 14:27:35;;;;;;;5.00;1.45;;;;;;;;;;6275672;22;20016;-69
2023/04/02 14:30:08;;;;;;;2.15;1.40;;;;;;;;;;6275915;22;20022;-69
2023/04/02 14:32:36;;;;;;;1.98;1.50;;;;;;;;;;6249006;22;20020;-69
2023/04/02 14:35:19;;;;;;;3.88;2.33;;;;;;;;;;6276023;22;20015;-68
2023/04/02 14:37:59;;;;;;;4.25;1.65;;;;;;;;;;6275918;22;20029;-69
2023/04/02 14:40:31;;;;;;;1.90;1.45;;;;;;;;;;6275692;22;20023;-69
2023/04/02 14:43:11;;;;;;;1.70;1.20;;;;;;;;;;6277280;22;20062;-68
2023/04/02 14:45:52;;;;;;;3.80;1.38;;;;;;;;;;6277638;22;20039;-68
2023/04/02 14:48:25;;;;;;;1.40;1.20;;;;;;;;;;6277387;22;20016;-69
2023/04/02 14:50:58;;;;;;;2.55;1.50;;;;;;;;;;6277770;22;20337;-69
2023/04/02 14:53:36;;;;;;;5.75;1.23;;;;;;;;;;6277197;22;20071;-69
2023/04/02 14:56:05;;;;;;;2.55;1.45;;;;;;;;;;6277519;22;20015;-68
2023/04/02 14:58:34;;;;;;;2.88;1.85;;;;;;;;;;6277237;22;20015;-69
2023/04/02 15:01:02;;;;;;;1.80;1.30;;;;;;;;;;6277054;22;20012;-68
2023/04/02 15:03:32;;;;;;;4.40;1.40;;;;;;;;;;6277218;22;20020;-68
2023/04/02 15:06:02;;;;;;;2.40;1.25;;;;;;;;;;6277264;22;20011;-68
2023/04/02 15:08:34;;;;;;;4.03;2.53;;;;;;;;;;6277286;22;20016;-68
2023/04/02 15:11:07;;;;;;;7.28;5.15;;;;;;;;;;6277096;22;20406;-68
2023/04/02 15:13:43;;;;;;;6.53;2.80;;;;;;;;;;6277275;22;20387;-68
2023/04/02 15:16:14;;;;;;;4.85;2.65;;;;;;;;;;6277027;22;20016;-69
2023/04/02 15:18:42;;;;;;;7.75;4.93;;;;;;;;;;6276599;22;20016;-68
2023/04/02 15:21:16;;;;;;;5.43;3.72;;;;;;;;;;6277021;22;20015;-68
2023/04/02 15:23:43;;;;;;;5.87;2.67;;;;;;;;;;6277205;22;20016;-68